createdAt,value
2023-06-29T07:43:12.949Z,23.66
2023-06-29T07:46:10.805Z,23.52
2023-06-29T07:49:06.068Z,23.58
2023-06-29T07:52:05.663Z,23.46
2023-06-29T07:55:01.251Z,23.69
2023-06-29T08:00:56.315Z,23.81
2023-06-29T08:04:02.270Z,23.61
2023-06-29T08:06:52.490Z,24.08
2023-06-29T08:09:47.985Z,24.01
2023-06-29T08:12:43.525Z,24.07
2023-06-29T08:15:40.084Z,24.18
2023-06-29T08:18:35.715Z,24.17
2023-06-29T08:21:31.224Z,24.4
2023-06-29T08:24:26.760Z,24.12
2023-06-29T08:27:22.346Z,24.49
2023-06-29T08:30:17.910Z,24.47
2023-06-29T08:33:14.553Z,24.09
2023-06-29T08:36:09.991Z,24.54
2023-06-29T08:39:06.589Z,24.69
2023-06-29T08:42:04.395Z,24.77
2023-06-29T08:45:01.664Z,24.57
2023-06-29T08:48:00.350Z,25.06
2023-06-29T08:51:00.807Z,25.09
2023-06-29T08:53:57.350Z,25.29
2023-06-29T08:56:58.933Z,25.53
2023-06-29T08:59:55.500Z,25.48
2023-06-29T09:02:54.128Z,25.27
2023-06-29T09:05:51.615Z,25.06
2023-06-29T09:08:47.291Z,25.46
2023-06-29T09:11:43.999Z,25.77
2023-06-29T09:14:45.250Z,25.71
2023-06-29T09:17:46.885Z,25.83
2023-06-29T09:20:50.292Z,25.84
2023-06-29T09:23:50.589Z,26.02
2023-06-29T09:26:51.449Z,25.98
2023-06-29T09:29:52.004Z,26.13
2023-06-29T09:32:47.585Z,26.2
2023-06-29T09:35:45.114Z,26.03
2023-06-29T09:38:40.654Z,26.22
2023-06-29T09:41:43.225Z,26.08
2023-06-29T09:44:40.815Z,24.93
2023-06-29T09:50:48.529Z,26.49
2023-06-29T09:53:47.418Z,26.05
2023-06-29T09:56:44.948Z,26.58
2023-06-29T09:59:42.508Z,26.95
2023-06-29T10:02:40.177Z,27.05
2023-06-29T10:05:38.628Z,26.94
2023-06-29T10:08:39.176Z,27.22
2023-06-29T10:11:37.737Z,27.08
2023-06-29T10:14:36.312Z,26.63
2023-06-29T10:17:36.940Z,27
2023-06-29T10:20:35.368Z,26.68
2023-06-29T10:23:36.900Z,26.6
2023-06-29T10:26:34.490Z,27.16
2023-06-29T10:29:31.051Z,27.25
2023-06-29T10:32:29.625Z,27.5
2023-06-29T10:35:33.141Z,27.69
2023-06-29T10:38:32.655Z,27.88
2023-06-29T10:41:29.588Z,27.81
2023-06-29T10:44:31.815Z,27.96
2023-06-29T10:47:28.422Z,28.14
2023-06-29T10:50:28.911Z,27.95
2023-06-29T10:53:31.483Z,27.75
2023-06-29T10:56:36.994Z,27.78
2023-06-29T10:59:40.509Z,28.24
2023-06-29T11:02:36.089Z,28.22
2023-06-29T11:05:33.839Z,26.69
2023-06-29T11:08:31.192Z,27.01
2023-06-29T11:11:26.778Z,27.92
2023-06-29T11:14:22.371Z,28.59
2023-06-29T11:17:19.918Z,28.32
2023-06-29T11:20:19.396Z,28.56
2023-06-29T11:23:18.061Z,27.99
2023-06-29T11:26:13.569Z,28.56
2023-06-29T11:29:10.503Z,28.78
2023-06-29T11:32:11.107Z,29.07
2023-06-29T11:35:08.242Z,29.37
2023-06-29T11:38:04.792Z,29.86
2023-06-29T11:41:03.328Z,29.86
2023-06-29T11:44:01.924Z,29.34
2023-06-29T11:49:56.027Z,28
2023-06-29T11:52:53.572Z,27.9
2023-06-29T11:55:51.142Z,28.5
2023-06-29T11:58:47.697Z,29.68
2023-06-29T12:01:48.264Z,28.82
2023-06-29T12:04:57.025Z,28.89
2023-06-29T12:08:05.498Z,28.33
2023-06-29T12:11:03.830Z,28.92
2023-06-29T12:14:02.429Z,28.5
2023-06-29T12:20:08.962Z,30.49
2023-06-29T12:23:02.047Z,29.21
2023-06-29T12:25:57.609Z,29.54
2023-06-29T12:28:55.188Z,30.13
2023-06-29T12:31:58.876Z,30.39
2023-06-29T12:34:56.329Z,30.32
2023-06-29T12:37:53.827Z,29.42
2023-06-29T12:40:49.387Z,29.98
2023-06-29T12:43:45.934Z,30.31
2023-06-29T12:46:42.549Z,30.33
2023-06-29T12:49:39.068Z,29.15
2023-06-29T12:52:35.604Z,29.74
2023-06-29T12:55:31.181Z,29.71
2023-06-29T12:58:26.744Z,28.44
2023-06-29T13:01:25.344Z,27.25
2023-06-29T13:04:21.178Z,27.9
2023-06-29T13:07:17.455Z,30.67
2023-06-29T13:10:13.984Z,29.3
2023-06-29T13:13:11.608Z,29
2023-06-29T13:16:07.110Z,29.55
2023-06-29T13:19:02.630Z,32.03
2023-06-29T13:21:58.321Z,30.7
2023-06-29T13:24:55.804Z,30.6
2023-06-29T13:27:51.359Z,31.7
2023-06-29T13:30:47.923Z,30.56
2023-06-29T13:33:43.509Z,30.94
2023-06-29T13:36:42.001Z,30.34
2023-06-29T13:39:39.598Z,31.54
2023-06-29T13:42:38.167Z,32.05
2023-06-29T13:45:33.707Z,30.01
2023-06-29T13:48:31.362Z,30.62
2023-06-29T13:51:28.804Z,31.37
2023-06-29T13:54:25.390Z,30.38
2023-06-29T13:57:23.432Z,29.53
2023-06-29T14:00:21.464Z,31.65
2023-06-29T14:03:17.108Z,32.76
2023-06-29T14:06:13.613Z,30.58
2023-06-29T14:09:10.139Z,28.78
2023-06-29T14:12:07.726Z,28.83
2023-06-29T14:15:06.291Z,29.07
2023-06-29T14:18:01.909Z,28.56
2023-06-29T14:20:59.377Z,31.09
2023-06-29T14:23:55.947Z,33.76
2023-06-29T14:26:53.535Z,33.96
2023-06-29T14:29:49.079Z,32.48
2023-06-29T14:32:45.758Z,32.29
2023-06-29T14:35:42.228Z,34.45
2023-06-29T14:38:38.718Z,33.48
2023-06-29T14:41:35.294Z,32.45
2023-06-29T14:44:30.849Z,32.84
2023-06-29T14:47:27.476Z,34.13
2023-06-29T14:50:24.001Z,32.79
2023-06-29T14:53:20.596Z,32.72
2023-06-29T14:56:17.145Z,30.85
2023-06-29T14:59:12.815Z,30.5
2023-06-29T15:02:10.232Z,29.76
2023-06-29T15:05:05.846Z,31.29
2023-06-29T15:08:01.320Z,31.7
2023-06-29T15:10:56.925Z,29.75
2023-06-29T15:13:52.490Z,28.64
2023-06-29T15:16:48.079Z,28.05
2023-06-29T15:19:43.556Z,28.4
2023-06-29T15:22:41.157Z,28.83
2023-06-29T15:25:40.192Z,30.3
2023-06-29T15:28:37.279Z,30.51
2023-06-29T15:31:32.912Z,32.61
2023-06-29T15:34:29.398Z,34.34
2023-06-29T15:37:26.012Z,34.54
2023-06-29T15:40:21.473Z,35.28
2023-06-29T15:43:19.074Z,34.18
2023-06-29T15:46:15.673Z,33.07
2023-06-29T15:49:12.210Z,33.97
2023-06-29T15:52:08.790Z,32.74
2023-06-29T15:55:05.317Z,30.24
2023-06-29T15:58:02.895Z,31.3
2023-06-29T16:00:58.416Z,32.53
2023-06-29T16:03:54.114Z,35.67
2023-06-29T16:06:54.590Z,34.33
2023-06-29T16:09:51.107Z,33.39
2023-06-29T16:12:46.709Z,33
2023-06-29T16:15:42.245Z,34.75
2023-06-29T16:18:37.794Z,34.16
2023-06-29T16:21:33.357Z,35.4
2023-06-29T16:24:28.911Z,36.14
2023-06-29T16:27:24.475Z,35.28
2023-06-29T16:30:21.054Z,33.84
2023-06-29T16:33:16.660Z,35.75
2023-06-29T16:36:12.185Z,37.11
2023-06-29T16:39:08.745Z,37.11
2023-06-29T16:42:05.283Z,37.91
2023-06-29T16:45:00.831Z,36.89
2023-06-29T16:47:57.497Z,34.52
2023-06-29T16:50:53.018Z,35.13
2023-06-29T16:53:49.506Z,35.57
2023-06-29T16:56:45.081Z,33
2023-06-29T16:59:40.623Z,32.15
2023-06-29T17:02:36.224Z,31.54
2023-06-29T17:05:32.756Z,30.21
2023-06-29T17:08:28.361Z,30.47
2023-06-29T17:11:26.889Z,30.56
2023-06-29T17:14:23.412Z,30.1
2023-06-29T17:17:19.086Z,29.41
2023-06-29T17:20:14.609Z,29.36
2023-06-29T17:23:10.084Z,29.81
2023-06-29T17:26:05.690Z,28.34
2023-06-29T17:29:01.257Z,27.96
2023-06-29T17:31:57.857Z,28.56
2023-06-29T17:34:53.380Z,28.33
2023-06-29T17:37:49.960Z,27.48
2023-06-29T17:40:45.533Z,27.62
2023-06-29T17:43:41.036Z,27.31
2023-06-29T17:46:39.017Z,27.72
2023-06-29T17:49:36.174Z,28.11
2023-06-29T17:52:32.725Z,29.2
2023-06-29T17:55:28.253Z,29.85
2023-06-29T17:58:23.863Z,30.52
2023-06-29T18:01:19.535Z,30.44
2023-06-29T18:04:15.308Z,29.99
2023-06-29T18:07:11.555Z,29.96
2023-06-29T18:10:08.427Z,29.71
2023-06-29T18:13:04.667Z,28.46
2023-06-29T18:16:01.245Z,27.24
2023-06-29T18:18:56.772Z,26.82
2023-06-29T18:21:52.316Z,26.54
2023-06-29T18:24:48.973Z,26.51
2023-06-29T18:27:44.432Z,26.23
2023-06-29T18:30:40.998Z,26.05
2023-06-29T18:33:36.548Z,25.84
2023-06-29T18:36:33.274Z,25.43
2023-06-29T18:39:29.702Z,25.3
2023-06-29T18:42:26.266Z,25.24
2023-06-29T18:45:25.982Z,25.26
2023-06-29T18:48:21.365Z,24.85
2023-06-29T18:51:16.952Z,24.91
2023-06-29T18:54:14.586Z,25.12
2023-06-29T18:57:11.060Z,25.11
2023-06-29T19:00:08.620Z,25.08
2023-06-29T19:03:04.333Z,24.93
2023-06-29T19:05:59.724Z,24.57
2023-06-29T19:08:56.316Z,24.45
2023-06-29T19:11:51.852Z,24.46
2023-06-29T19:14:47.433Z,24.55
2023-06-29T19:17:44.065Z,24.45
2023-06-29T19:20:40.526Z,24.5
2023-06-29T19:23:37.101Z,24.45
2023-06-29T19:26:32.656Z,24.23
2023-06-29T19:29:28.262Z,24.04
2023-06-29T19:32:23.840Z,24.18
2023-06-29T19:35:19.330Z,23.89
2023-06-29T19:38:14.902Z,23.58
2023-06-29T19:41:11.454Z,23.69
2023-06-29T19:44:07.995Z,23.8
2023-06-29T19:47:04.579Z,23.7
2023-06-29T19:50:01.149Z,23.36
2023-06-29T19:52:56.718Z,23.32
2023-06-29T19:55:53.315Z,23.23
2023-06-29T19:58:48.809Z,23.24
2023-06-29T20:01:44.356Z,23.57
2023-06-29T20:04:39.953Z,23.43
2023-06-29T20:07:37.553Z,23.39
2023-06-29T20:10:34.030Z,23.49
2023-06-29T20:13:30.669Z,23.58
2023-06-29T20:16:26.176Z,23.53
2023-06-29T20:19:23.735Z,23.6
2023-06-29T20:22:19.295Z,23.62
2023-06-29T20:25:15.860Z,23.14
2023-06-29T20:28:11.458Z,22.61
2023-06-29T20:31:08.219Z,22.28
2023-06-29T20:34:03.520Z,22.09
2023-06-29T20:37:00.113Z,22.26
2023-06-29T20:39:55.674Z,22.34
2023-06-29T20:42:51.310Z,22.45
2023-06-29T20:45:49.369Z,22.44
2023-06-29T20:48:45.317Z,22.52
2023-06-29T20:51:40.896Z,22.59
2023-06-29T20:54:37.455Z,22.6
2023-06-29T20:57:38.189Z,22.47
2023-06-29T21:00:34.572Z,22.25
2023-06-29T21:03:34.263Z,22.2
2023-06-29T21:06:31.703Z,22.15
2023-06-29T21:09:27.253Z,22.22
2023-06-29T21:12:23.788Z,22.2
2023-06-29T21:15:20.353Z,22.21
2023-06-29T21:18:16.919Z,22.2
2023-06-29T21:21:13.468Z,22.18
2023-06-29T21:24:11.021Z,22.22
2023-06-29T21:27:07.589Z,22.15
2023-06-29T21:30:05.207Z,22.08
2023-06-29T21:33:01.744Z,21.98
2023-06-29T21:35:58.277Z,21.93
2023-06-29T21:38:55.824Z,21.83
2023-06-29T21:41:51.394Z,21.73
2023-06-29T21:44:46.991Z,22.14
2023-06-29T21:47:43.561Z,22.19
2023-06-29T21:50:40.054Z,22.02
2023-06-29T21:53:37.613Z,21.81
2023-06-29T21:56:34.164Z,21.93
2023-06-29T21:59:29.822Z,21.76
2023-06-29T22:02:25.303Z,21.94
2023-06-29T22:05:20.895Z,21.9
2023-06-29T22:08:17.428Z,21.94
2023-06-29T22:11:13.022Z,22
2023-06-29T22:14:10.555Z,21.97
2023-06-29T22:17:07.147Z,21.82
2023-06-29T22:20:11.789Z,21.78
2023-06-29T22:23:07.232Z,22
2023-06-29T22:26:02.793Z,22.15
2023-06-29T22:28:58.316Z,21.95
2023-06-29T22:31:53.853Z,21.68
2023-06-29T22:34:52.514Z,21.35
2023-06-29T22:37:48.010Z,21.37
2023-06-29T22:40:45.555Z,21.2
2023-06-29T22:43:42.149Z,21.07
2023-06-29T22:46:38.772Z,21.18
2023-06-29T22:49:34.253Z,21.18
2023-06-29T22:52:29.771Z,21.12
2023-06-29T22:55:26.384Z,20.95
2023-06-29T22:58:25.248Z,20.88
2023-06-29T23:01:20.591Z,20.89
2023-06-29T23:04:17.205Z,20.93
2023-06-29T23:07:13.628Z,21.18
2023-06-29T23:10:10.178Z,21.39
2023-06-29T23:13:05.711Z,21.36
2023-06-29T23:16:01.319Z,21.25
2023-06-29T23:18:56.812Z,21.42
2023-06-29T23:21:53.452Z,21.29
2023-06-29T23:24:52.948Z,21.06
2023-06-29T23:27:49.502Z,21.01
2023-06-29T23:30:46.043Z,20.85
2023-06-29T23:33:41.619Z,20.89
2023-06-29T23:36:37.259Z,20.92
2023-06-29T23:39:37.741Z,20.48
2023-06-29T23:42:36.270Z,20.85
2023-06-29T23:45:33.902Z,20.42
2023-06-29T23:48:31.420Z,20.54
2023-06-29T23:51:26.968Z,20.57
2023-06-29T23:54:22.541Z,21.02
2023-06-29T23:57:20.117Z,20.75
